메인 페이지
METAR-TAF:

METAR-TAF

공항 :

캘거리 국제공항

캘거리, 앨버타, 캐나다

위도: 51-07N, 경도: 114-01W, 고도: 1077m

현재 날씨관측

예보는 33분 전, 03:00시(UTC)에 발표되었습니다.
동북동6kt
온도 7°C
습도 45%
기압 1015 hPa
시정: 24.1km
고도 8700ft 상공 구름 많음
고도 17000ft 상공 구름 많음

METAR: CYYC 210300Z 06006KT 15SM BKN087 BKN170 07/M04 A2998 RMK AC5AC2 SLP184

시각: 21:33 (03:33 UTC)

예보

예보는 55분 전, 02:38시(UTC)에 발표되었습니다.
예보 대상 시간: 21일 03시부터 21일 24시까지 (UTC)
북동12kt
시정: 10km
고도 8000ft 상공 구름 많음
21일 0600시부터 (UTC)
여러 방향의 바람 3kt
시정: 10km
고도 6000ft 상공 구름 보통
고도 20000ft 상공 구름 보통
일시적
21일 06시부터 21일 14시까지 (UTC)
고도 6000ft 상공 구름 많음
고도 20000ft 상공 구름 많음
21일 1400시부터 (UTC)
남남동8kt
시정: 10km
고도 6000ft 상공 구름 조금
고도 20000ft 상공 구름 조금
전환 중
21일 15시부터 21일 17시까지 (UTC)
12kt
21일 2000시부터 (UTC)
12kt
시정: 10km
고도 8000ft 상공 구름 보통
고도 14000ft 상공 구름 많음

TAF: CYYC 210238Z 2103/2124 04012KT P6SM BKN080 FM210600 VRB03KT P6SM SCT060 SCT200 TEMPO 2106/2114 BKN060 BKN200 FM211400 16008KT P6SM FEW060 FEW200 BECMG 2115/2117 17012KT FM212000 18012KT P6SM SCT080 BKN140 RMK NXT FCST BY 210600Z

4,000개 이상의 공항 관측 자료 및 예보 (METAR 및 TAF 보고).

지도상에서 검색 가능한 기상관측소가 노란 점과 빨간 점으로 표시되어 있습니다.

기상관측소 명을 보려면 표시 위로 마우스를 이동하세요.

날씨 관측과 예보를 보려면 클릭하세요.

지도 변경 : 확대하려면 엑스 표시가 있는 녹색 버튼, 축소하려면 빼기 표시가 있는 녹색 버튼, 다음 페이지의 지도를 보려면 녹색 화살표를 클릭하세요.


METAR-TAF: